createdAt,value
2018-04-02T00:00:13.414Z,6.44
2018-04-02T00:01:13.229Z,6.31
2018-04-02T00:02:13.196Z,6.36
2018-04-02T00:03:13.480Z,6.48
2018-04-02T00:04:13.223Z,6.41
2018-04-02T00:05:13.240Z,6.27
2018-04-02T00:06:13.509Z,6.19
2018-04-02T00:07:13.273Z,6.08
2018-04-02T00:08:13.540Z,6.14
2018-04-02T00:09:13.306Z,6.2
2018-04-02T00:10:13.570Z,6.16
2018-04-02T00:11:13.480Z,6.28
2018-04-02T00:12:13.090Z,6.28
2018-04-02T00:13:13.367Z,6.12
2018-04-02T00:14:13.629Z,6.2
2018-04-02T00:15:13.644Z,6.12
2018-04-02T00:16:13.659Z,6.2
2018-04-02T00:17:13.163Z,6.28
2018-04-02T00:18:13.695Z,6.36
2018-04-02T00:19:13.705Z,6.44
2018-04-02T00:20:13.207Z,6.38
2018-04-02T00:21:13.490Z,6.09
2018-04-02T00:22:13.486Z,6.26
2018-04-02T00:23:13.755Z,6.22
2018-04-02T00:24:13.772Z,6.26
2018-04-02T00:25:13.788Z,6.09
2018-04-02T00:26:13.857Z,6.12
2018-04-02T00:27:13.818Z,6.14
2018-04-02T00:28:13.832Z,6.14
2018-04-02T00:29:13.596Z,6.08
2018-04-02T00:30:13.872Z,6.35
2018-04-02T00:31:13.896Z,6.3
2018-04-02T00:32:13.629Z,6.36
2018-04-02T00:33:13.914Z,6.26
2018-04-02T00:34:13.655Z,6.22
2018-04-02T00:35:13.692Z,6.31
2018-04-02T00:36:14.572Z,6.31
2018-04-02T00:37:13.965Z,6.31
2018-04-02T00:38:13.987Z,6.41
2018-04-02T00:39:13.740Z,6.3
2018-04-02T00:40:14.015Z,6.33
2018-04-02T00:41:13.823Z,6.35
2018-04-02T00:42:14.052Z,6.44
2018-04-02T00:43:14.056Z,6.42
2018-04-02T00:44:14.076Z,6.41
2018-04-02T00:45:13.831Z,6.44
2018-04-02T00:46:14.099Z,6.31
2018-04-02T00:47:13.865Z,6.48
2018-04-02T00:48:13.875Z,6.45
2018-04-02T00:49:14.138Z,6.52
2018-04-02T00:50:14.158Z,6.52
2018-04-02T00:51:14.173Z,6.54
2018-04-02T00:52:13.933Z,6.66
2018-04-02T00:53:14.001Z,6.59
2018-04-02T00:54:14.216Z,6.51
2018-04-02T00:55:13.977Z,6.54
2018-04-02T00:56:14.006Z,6.46
2018-04-02T00:57:14.270Z,6.41
2018-04-02T00:58:14.274Z,6.38
2018-04-02T00:59:14.292Z,6.41
2018-04-02T01:00:13.796Z,6.41
2018-04-02T01:01:14.065Z,6.46
2018-04-02T01:02:14.368Z,6.59
2018-04-02T01:03:14.371Z,6.6
2018-04-02T01:04:14.144Z,6.69
2018-04-02T01:05:14.412Z,6.54
2018-04-02T01:06:14.141Z,6.75
2018-04-02T01:07:14.415Z,6.57
2018-04-02T01:08:14.480Z,6.62
2018-04-02T01:09:14.184Z,6.69
2018-04-02T01:10:14.198Z,6.51
2018-04-02T01:11:14.216Z,6.54
2018-04-02T01:12:14.231Z,6.56
2018-04-02T01:13:14.499Z,6.69
2018-04-02T01:14:14.258Z,6.78
2018-04-02T01:15:14.020Z,6.63
2018-04-02T01:16:14.275Z,6.67
2018-04-02T01:17:14.545Z,6.52
2018-04-02T01:18:14.362Z,6.56
2018-04-02T01:19:14.574Z,6.49
2018-04-02T01:20:14.590Z,6.49
2018-04-02T01:21:14.612Z,6.56
2018-04-02T01:22:14.627Z,6.52
2018-04-02T01:23:14.639Z,6.74
2018-04-02T01:24:14.666Z,6.66
2018-04-02T01:25:14.686Z,6.56
2018-04-02T01:26:14.690Z,6.45
2018-04-02T01:27:14.710Z,6.56
2018-04-02T01:28:14.732Z,6.52
2018-04-02T01:29:14.739Z,6.52
2018-04-02T01:30:14.751Z,6.49
2018-04-02T01:31:14.784Z,6.41
2018-04-02T01:32:14.803Z,6.36
2018-04-02T01:33:14.338Z,6.46
2018-04-02T01:34:14.810Z,6.57
2018-04-02T01:35:14.830Z,6.57
2018-04-02T01:36:14.333Z,6.31
2018-04-02T01:37:14.859Z,6.24
2018-04-02T01:38:14.874Z,6.39
2018-04-02T01:39:14.628Z,6.46
2018-04-02T01:40:14.391Z,6.41
2018-04-02T01:41:14.918Z,6.35
2018-04-02T01:42:14.673Z,6.39
2018-04-02T01:43:14.690Z,6.44
2018-04-02T01:44:14.957Z,6.44
2018-04-02T01:45:14.718Z,6.26
2018-04-02T01:46:14.733Z,6.35
2018-04-02T01:47:14.492Z,6.3
2018-04-02T01:48:15.086Z,6.28
2018-04-02T01:49:15.038Z,6.22
2018-04-02T01:50:15.064Z,6.17
2018-04-02T01:51:15.060Z,5.94
2018-04-02T01:52:14.822Z,6.08
2018-04-02T01:53:15.092Z,6.12
2018-04-02T01:54:15.110Z,6.36
2018-04-02T01:55:14.866Z,6.3
2018-04-02T01:56:14.880Z,6.36
2018-04-02T01:57:15.150Z,6.38
2018-04-02T01:58:14.913Z,6.28
2018-04-02T01:59:15.181Z,6.22
2018-04-02T02:00:15.199Z,6.19
2018-04-02T02:01:14.959Z,6.05
2018-04-02T02:02:15.229Z,6.01
2018-04-02T02:03:15.135Z,6.11
2018-04-02T02:04:15.254Z,6.16
2018-04-02T02:05:15.022Z,5.97
2018-04-02T02:06:15.283Z,6.08
2018-04-02T02:07:15.303Z,6.11
2018-04-02T02:08:14.806Z,6.11
2018-04-02T02:09:15.329Z,6.11
2018-04-02T02:10:15.097Z,6.02
2018-04-02T02:11:15.360Z,6.04
2018-04-02T02:12:15.389Z,5.94
2018-04-02T02:13:15.380Z,5.93
2018-04-02T02:14:14.891Z,5.89
2018-04-02T02:15:15.417Z,5.99
2018-04-02T02:16:15.425Z,6.02
2018-04-02T02:17:14.934Z,5.82
2018-04-02T02:18:15.252Z,5.89
2018-04-02T02:19:15.228Z,5.79
2018-04-02T02:20:15.491Z,5.69
2018-04-02T02:21:15.506Z,5.75
2018-04-02T02:22:15.517Z,5.83
2018-04-02T02:23:15.531Z,5.83
2018-04-02T02:24:15.546Z,5.91
2018-04-02T02:25:15.566Z,5.86
2018-04-02T02:26:15.318Z,5.69
2018-04-02T02:27:15.335Z,5.72
2018-04-02T02:28:15.606Z,5.75
2018-04-02T02:29:15.364Z,5.76
2018-04-02T02:30:15.654Z,5.83
2018-04-02T02:31:15.653Z,5.94
2018-04-02T02:32:15.676Z,5.9
2018-04-02T02:33:15.745Z,5.75
2018-04-02T02:34:15.436Z,5.9
2018-04-02T02:35:15.703Z,5.93
2018-04-02T02:36:15.464Z,6.04
2018-04-02T02:37:15.802Z,6.02
2018-04-02T02:38:15.754Z,5.94
2018-04-02T02:39:15.512Z,5.99
2018-04-02T02:40:15.781Z,5.98
2018-04-02T02:41:15.826Z,5.93
2018-04-02T02:42:15.811Z,5.9
2018-04-02T02:43:15.615Z,5.86
2018-04-02T02:44:15.833Z,5.98
2018-04-02T02:45:15.855Z,6.01
2018-04-02T02:46:15.609Z,5.87
2018-04-02T02:47:15.942Z,5.94
2018-04-02T02:48:15.899Z,5.98
2018-04-02T02:49:15.399Z,5.93
2018-04-02T02:50:15.926Z,5.99
2018-04-02T02:51:15.683Z,5.89
2018-04-02T02:52:15.702Z,5.94
2018-04-02T02:53:15.965Z,5.9
2018-04-02T02:54:15.725Z,5.68
2018-04-02T02:55:15.737Z,5.75
2018-04-02T02:56:15.499Z,5.84
2018-04-02T02:57:15.768Z,5.76
2018-04-02T02:58:15.834Z,5.91
2018-04-02T02:59:16.056Z,5.87
2018-04-02T03:00:16.078Z,5.9
2018-04-02T03:01:15.827Z,5.9
2018-04-02T03:02:15.844Z,6.04
2018-04-02T03:03:16.115Z,5.71
2018-04-02T03:04:16.153Z,5.75
2018-04-02T03:05:16.152Z,5.69
2018-04-02T03:06:15.909Z,5.75
2018-04-02T03:07:15.922Z,5.69
2018-04-02T03:08:15.933Z,5.75
2018-04-02T03:09:16.181Z,5.69
2018-04-02T03:10:15.955Z,5.62
2018-04-02T03:11:16.206Z,5.62
2018-04-02T03:12:15.988Z,5.68
2018-04-02T03:13:16.319Z,5.68
2018-04-02T03:14:16.017Z,5.72
2018-04-02T03:15:16.283Z,5.72
2018-04-02T03:16:16.300Z,5.62
2018-04-02T03:17:16.061Z,5.68
2018-04-02T03:18:16.326Z,5.71
2018-04-02T03:19:16.094Z,5.71
2018-04-02T03:20:15.848Z,5.64
2018-04-02T03:21:16.372Z,5.76
2018-04-02T03:22:16.158Z,5.75
2018-04-02T03:23:16.445Z,5.8
2018-04-02T03:24:16.166Z,5.71
2018-04-02T03:25:16.425Z,5.73
2018-04-02T03:26:16.435Z,5.75
2018-04-02T03:27:16.455Z,5.65
2018-04-02T03:28:16.522Z,5.66
2018-04-02T03:29:16.230Z,5.66
2018-04-02T03:30:16.503Z,5.73
2018-04-02T03:31:16.525Z,5.61
2018-04-02T03:32:16.271Z,5.53
2018-04-02T03:33:16.282Z,5.57
2018-04-02T03:34:16.307Z,5.5
2018-04-02T03:35:16.572Z,5.54
2018-04-02T03:36:16.584Z,5.64
2018-04-02T03:37:16.350Z,5.46
2018-04-02T03:38:16.618Z,5.61
2018-04-02T03:39:16.117Z,5.66
2018-04-02T03:40:16.650Z,5.54
2018-04-02T03:41:16.148Z,5.69
2018-04-02T03:42:16.673Z,5.72
2018-04-02T03:43:16.739Z,5.65
2018-04-02T03:44:16.448Z,5.64
2018-04-02T03:45:16.718Z,5.64
2018-04-02T03:46:16.218Z,5.57
2018-04-02T03:47:16.740Z,5.56
2018-04-02T03:48:16.757Z,5.66
2018-04-02T03:49:16.498Z,5.69
2018-04-02T03:50:16.764Z,5.64
2018-04-02T03:51:16.558Z,5.59
2018-04-02T03:52:16.548Z,5.61
2018-04-02T03:53:16.862Z,5.61
2018-04-02T03:54:16.826Z,5.72
2018-04-02T03:55:16.594Z,5.54
2018-04-02T03:56:16.864Z,5.62
2018-04-02T03:57:16.614Z,5.62
2018-04-02T03:58:16.936Z,5.68
2018-04-02T03:59:16.906Z,5.65
2018-04-02T04:00:16.657Z,5.72
2018-04-02T04:01:16.924Z,5.72
2018-04-02T04:02:16.437Z,5.68
2018-04-02T04:03:16.949Z,5.75
2018-04-02T04:04:16.726Z,5.73
2018-04-02T04:05:16.722Z,5.66
2018-04-02T04:06:16.989Z,5.73
2018-04-02T04:07:17.006Z,5.66
2018-04-02T04:08:16.789Z,5.64
2018-04-02T04:09:17.030Z,5.66
2018-04-02T04:10:17.057Z,5.72
2018-04-02T04:11:16.813Z,5.83
2018-04-02T04:12:16.824Z,5.82
2018-04-02T04:13:16.902Z,5.84
2018-04-02T04:14:17.106Z,5.89
2018-04-02T04:15:16.889Z,5.71
2018-04-02T04:16:16.911Z,5.69
2018-04-02T04:17:17.222Z,5.65
2018-04-02T04:18:17.185Z,5.71
2018-04-02T04:19:16.690Z,5.69
2018-04-02T04:20:16.956Z,5.75
2018-04-02T04:21:17.227Z,5.8
2018-04-02T04:22:16.986Z,5.83
2018-04-02T04:23:16.999Z,5.72
2018-04-02T04:24:17.017Z,5.69
2018-04-02T04:25:17.300Z,5.59
2018-04-02T04:26:17.336Z,5.71
2018-04-02T04:27:17.320Z,5.75
2018-04-02T04:28:17.380Z,5.64
2018-04-02T04:29:17.342Z,5.71
2018-04-02T04:30:17.098Z,5.75
2018-04-02T04:31:17.369Z,5.72
2018-04-02T04:32:17.381Z,5.61
2018-04-02T04:33:17.402Z,5.73
2018-04-02T04:34:17.167Z,5.72
2018-04-02T04:35:17.180Z,5.86
2018-04-02T04:36:17.444Z,5.83
2018-04-02T04:37:17.470Z,5.82
2018-04-02T04:38:17.472Z,5.82
2018-04-02T04:39:17.488Z,5.72
2018-04-02T04:40:17.626Z,5.73
2018-04-02T04:41:17.258Z,5.69
2018-04-02T04:42:17.529Z,5.71
2018-04-02T04:43:17.595Z,5.69
2018-04-02T04:44:17.557Z,5.72
2018-04-02T04:45:17.328Z,5.66
2018-04-02T04:46:17.331Z,5.61
2018-04-02T04:47:17.598Z,5.68
2018-04-02T04:48:17.618Z,5.64
2018-04-02T04:49:17.627Z,5.64
2018-04-02T04:50:17.393Z,5.69
2018-04-02T04:51:17.409Z,5.73
2018-04-02T04:52:17.423Z,5.71
2018-04-02T04:53:17.483Z,5.79
2018-04-02T04:54:17.457Z,5.84
2018-04-02T04:55:17.724Z,5.9
2018-04-02T04:56:17.224Z,5.72
2018-04-02T04:57:17.490Z,5.82
2018-04-02T04:58:17.503Z,5.8
2018-04-02T04:59:17.772Z,5.76
2018-04-02T05:00:17.542Z,5.83
2018-04-02T05:01:17.818Z,5.76
2018-04-02T05:02:17.818Z,5.72
2018-04-02T05:03:17.832Z,5.79
2018-04-02T05:04:17.871Z,5.71
2018-04-02T05:05:17.869Z,5.79
2018-04-02T05:06:17.621Z,5.72
2018-04-02T05:07:17.635Z,5.73
2018-04-02T05:08:17.957Z,5.73
2018-04-02T05:09:17.923Z,5.71
2018-04-02T05:10:17.936Z,5.75
2018-04-02T05:11:17.950Z,5.86
2018-04-02T05:12:17.711Z,5.86
2018-04-02T05:13:17.726Z,5.98
2018-04-02T05:14:17.973Z,5.99
2018-04-02T05:15:17.981Z,5.94
2018-04-02T05:16:18.052Z,6.02
2018-04-02T05:17:17.765Z,6.01
2018-04-02T05:18:18.035Z,5.98
2018-04-02T05:19:17.798Z,5.99
2018-04-02T05:20:18.072Z,5.9
2018-04-02T05:21:18.080Z,5.93
2018-04-02T05:22:17.853Z,5.87
2018-04-02T05:23:17.874Z,5.76
2018-04-02T05:24:18.140Z,5.75
2018-04-02T05:25:17.897Z,5.71
2018-04-02T05:26:18.163Z,5.69
2018-04-02T05:27:18.246Z,5.66
2018-04-02T05:28:17.925Z,5.62
2018-04-02T05:29:18.197Z,5.47
2018-04-02T05:30:18.200Z,5.48
2018-04-02T05:31:18.215Z,5.5
2018-04-02T05:32:17.980Z,5.71
2018-04-02T05:33:18.252Z,5.72
2018-04-02T05:34:18.276Z,5.69
2018-04-02T05:35:18.040Z,5.62
2018-04-02T05:36:18.305Z,5.69
2018-04-02T05:37:18.067Z,5.62
2018-04-02T05:38:17.831Z,5.59
2018-04-02T05:39:18.352Z,5.59
2018-04-02T05:40:18.372Z,5.71
2018-04-02T05:41:18.139Z,5.69
2018-04-02T05:42:17.932Z,5.61
2018-04-02T05:43:18.163Z,5.66
2018-04-02T05:44:18.166Z,5.64
2018-04-02T05:45:18.264Z,5.57
2018-04-02T05:46:17.940Z,5.64
2018-04-02T05:47:18.216Z,5.59
2018-04-02T05:48:18.229Z,5.65
2018-04-02T05:49:18.239Z,5.73
2018-04-02T05:50:18.509Z,5.66
2018-04-02T05:51:18.012Z,5.66
2018-04-02T05:52:18.556Z,5.51
2018-04-02T05:53:18.040Z,5.47
2018-04-02T05:54:18.581Z,5.47
2018-04-02T05:55:18.580Z,5.61
2018-04-02T05:56:18.594Z,5.68
2018-04-02T05:57:18.756Z,5.73
2018-04-02T05:58:18.113Z,5.71
2018-04-02T05:59:18.634Z,5.73
2018-04-02T06:00:18.651Z,5.9
2018-04-02T06:01:18.406Z,5.76
2018-04-02T06:02:18.429Z,5.9
2018-04-02T06:03:18.697Z,5.87
2018-04-02T06:04:18.452Z,5.87
2018-04-02T06:05:18.800Z,5.97
2018-04-02T06:06:18.736Z,5.98
2018-04-02T06:07:18.749Z,6.01
2018-04-02T06:08:18.767Z,6.12
2018-04-02T06:09:18.785Z,6.05
2018-04-02T06:10:18.287Z,6.12
2018-04-02T06:11:18.816Z,6.22
2018-04-02T06:12:18.623Z,6.09
2018-04-02T06:13:18.838Z,6.09
2018-04-02T06:14:18.851Z,6.2
2018-04-02T06:15:18.872Z,6.2
2018-04-02T06:16:18.654Z,6.28
2018-04-02T06:17:18.900Z,6.11
2018-04-02T06:18:18.915Z,6.11
2018-04-02T06:19:18.680Z,6.22
2018-04-02T06:20:18.986Z,6.44
2018-04-02T06:21:18.968Z,6.54
2018-04-02T06:22:18.978Z,6.57
2018-04-02T06:23:18.986Z,6.66
2018-04-02T06:24:18.770Z,6.75
2018-04-02T06:25:18.755Z,6.74
2018-04-02T06:26:18.766Z,6.78
2018-04-02T06:27:19.086Z,6.78
2018-04-02T06:28:18.552Z,6.85
2018-04-02T06:29:19.073Z,6.99
2018-04-02T06:30:18.952Z,6.99
2018-04-02T06:31:19.109Z,7.03
2018-04-02T06:32:19.124Z,7.1
2018-04-02T06:33:19.150Z,7.11
2018-04-02T06:34:19.155Z,7.21
2018-04-02T06:35:19.167Z,7.29
2018-04-02T06:36:18.925Z,7.36
2018-04-02T06:37:19.208Z,7.31
2018-04-02T06:38:18.965Z,7.35
2018-04-02T06:39:19.228Z,7.29
2018-04-02T06:40:18.995Z,7.36
2018-04-02T06:41:19.010Z,7.39
2018-04-02T06:42:19.025Z,7.43
2018-04-02T06:43:19.044Z,7.42
2018-04-02T06:44:19.362Z,7.47
2018-04-02T06:45:19.363Z,7.45
2018-04-02T06:46:19.341Z,7.43
2018-04-02T06:47:19.103Z,7.56
2018-04-02T06:48:19.373Z,7.56
2018-04-02T06:49:19.384Z,7.7
2018-04-02T06:50:19.413Z,7.66
2018-04-02T06:51:19.163Z,7.73
2018-04-02T06:52:19.441Z,7.77
2018-04-02T06:53:19.450Z,7.87
2018-04-02T06:54:19.463Z,7.95
2018-04-02T06:55:19.234Z,7.91
2018-04-02T06:56:19.248Z,7.91
2018-04-02T06:57:19.521Z,7.94
2018-04-02T06:58:19.536Z,7.91
2018-04-02T06:59:19.337Z,8.01
2018-04-02T07:00:19.308Z,8.06
2018-04-02T07:01:19.321Z,8.01
2018-04-02T07:02:19.091Z,7.88
2018-04-02T07:03:19.358Z,7.98
2018-04-02T07:04:19.374Z,7.98
2018-04-02T07:05:19.653Z,7.95
2018-04-02T07:06:19.401Z,8
2018-04-02T07:07:19.422Z,7.95
2018-04-02T07:08:19.686Z,7.97
2018-04-02T07:09:19.450Z,8.1
2018-04-02T07:10:19.478Z,8.27
2018-04-02T07:11:19.738Z,8.23
2018-04-02T07:12:19.496Z,8.3
2018-04-02T07:13:19.773Z,8.42
2018-04-02T07:14:19.789Z,8.41
2018-04-02T07:15:19.856Z,8.49
2018-04-02T07:16:19.328Z,8.49
2018-04-02T07:17:19.604Z,8.45
2018-04-02T07:18:19.849Z,8.53
2018-04-02T07:19:19.610Z,8.46
2018-04-02T07:20:19.882Z,8.55
2018-04-02T07:21:19.641Z,8.63
2018-04-02T07:22:19.662Z,8.66
2018-04-02T07:23:19.929Z,8.69
2018-04-02T07:24:19.952Z,8.67
2018-04-02T07:25:20.019Z,8.71
2018-04-02T07:26:19.472Z,8.78
2018-04-02T07:27:19.492Z,8.81
2018-04-02T07:28:20.018Z,8.78
2018-04-02T07:29:20.034Z,9.03
2018-04-02T07:30:20.045Z,8.95
2018-04-02T07:31:20.063Z,9.08
2018-04-02T07:32:19.572Z,9.14
2018-04-02T07:33:19.844Z,9.16
2018-04-02T07:34:19.857Z,9.21
2018-04-02T07:35:20.128Z,9.29
2018-04-02T07:36:20.169Z,9.39
2018-04-02T07:37:19.953Z,9.36
2018-04-02T07:38:20.173Z,9.43
2018-04-02T07:39:20.204Z,9.44
2018-04-02T07:40:19.753Z,9.39
2018-04-02T07:41:20.229Z,9.39
2018-04-02T07:42:20.244Z,9.32
2018-04-02T07:43:19.752Z,9.37
2018-04-02T07:44:20.091Z,9.47
2018-04-02T07:45:20.043Z,9.41
2018-04-02T07:46:20.385Z,9.5
2018-04-02T07:47:20.075Z,9.54
2018-04-02T07:48:20.346Z,9.56
2018-04-02T07:49:20.372Z,9.65
2018-04-02T07:50:20.388Z,9.68
2018-04-02T07:51:20.393Z,9.54
2018-04-02T07:52:20.169Z,9.54
2018-04-02T07:53:20.177Z,9.64
2018-04-02T07:54:20.451Z,9.84
2018-04-02T07:55:20.519Z,9.65
2018-04-02T07:56:20.229Z,9.72
2018-04-02T07:57:20.503Z,9.91
2018-04-02T07:58:20.008Z,9.94
2018-04-02T07:59:20.534Z,10.07
2018-04-02T08:00:20.312Z,10.13
2018-04-02T08:01:20.312Z,10.07
2018-04-02T08:02:20.335Z,10.1
2018-04-02T08:03:20.349Z,9.98
2018-04-02T08:04:20.749Z,9.98
2018-04-02T08:05:20.643Z,10.01
2018-04-02T08:06:20.149Z,9.97
2018-04-02T08:07:20.663Z,10.16
2018-04-02T08:08:20.171Z,10.37
2018-04-02T08:09:20.193Z,10.41
2018-04-02T08:10:20.514Z,10.46
2018-04-02T08:11:20.737Z,10.64
2018-04-02T08:12:20.492Z,10.74
2018-04-02T08:13:20.774Z,10.84
2018-04-02T08:14:20.570Z,10.96
2018-04-02T08:15:20.560Z,10.89
2018-04-02T08:16:20.836Z,10.93
2018-04-02T08:17:20.851Z,10.89
2018-04-02T08:18:20.611Z,11.11
2018-04-02T08:19:20.628Z,10.93
2018-04-02T08:20:20.650Z,10.99
2018-04-02T08:21:21.019Z,11
2018-04-02T08:22:20.697Z,10.93
2018-04-02T08:23:20.703Z,11.05
2018-04-02T08:24:20.980Z,11.05
2018-04-02T08:25:21.126Z,10.96
2018-04-02T08:26:20.763Z,10.96
2018-04-02T08:27:21.031Z,10.82
2018-04-02T08:28:20.595Z,10.84
2018-04-02T08:29:21.068Z,10.84
2018-04-02T08:30:21.087Z,10.86
2018-04-02T08:31:20.858Z,10.94
2018-04-02T08:32:20.866Z,11
2018-04-02T08:33:20.883Z,11.1
2018-04-02T08:34:20.904Z,11.15
2018-04-02T08:35:21.157Z,11.26
2018-04-02T08:36:21.177Z,11.25
2018-04-02T08:37:21.825Z,11.41
2018-04-02T08:38:21.230Z,11.4
2018-04-02T08:39:20.989Z,11.51
2018-04-02T08:40:21.317Z,11.62
2018-04-02T08:41:21.028Z,11.55
2018-04-02T08:42:21.047Z,11.65
2018-04-02T08:43:21.321Z,11.88
2018-04-02T08:44:21.500Z,11.9
2018-04-02T08:45:21.107Z,11.73
2018-04-02T08:46:21.144Z,11.72
2018-04-02T08:47:21.139Z,11.78
2018-04-02T08:48:21.418Z,11.84
2018-04-02T08:49:21.423Z,11.73
2018-04-02T08:50:21.180Z,11.68
2018-04-02T08:51:21.468Z,11.8
2018-04-02T08:52:21.492Z,11.62
2018-04-02T08:53:21.508Z,11.7
2018-04-02T08:54:21.521Z,11.68
2018-04-02T08:55:21.337Z,11.77
2018-04-02T08:56:21.310Z,11.86
2018-04-02T08:57:21.329Z,12
2018-04-02T08:58:21.350Z,12.1
2018-04-02T08:59:21.123Z,12.27
2018-04-02T09:00:21.641Z,12.27
2018-04-02T09:01:21.686Z,12.42
2018-04-02T09:02:21.468Z,12.28
2018-04-02T09:03:21.461Z,11.94
2018-04-02T09:04:21.450Z,11.99
2018-04-02T09:05:21.472Z,12.03
2018-04-02T09:06:21.490Z,12.13
2018-04-02T09:07:21.255Z,12.09
2018-04-02T09:08:21.775Z,12.09
2018-04-02T09:09:21.576Z,12
2018-04-02T09:10:21.363Z,12.17
2018-04-02T09:11:21.842Z,12.07
2018-04-02T09:12:21.351Z,12.18
2018-04-02T09:13:21.646Z,12.2
2018-04-02T09:14:21.401Z,12.32
2018-04-02T09:15:21.662Z,12.54
2018-04-02T09:16:21.685Z,12.65
2018-04-02T09:17:21.708Z,12.64
2018-04-02T09:18:21.477Z,12.75
2018-04-02T09:19:21.750Z,12.62
2018-04-02T09:20:22.030Z,12.62
2018-04-02T09:21:22.055Z,12.8
2018-04-02T09:22:21.807Z,12.68
2018-04-02T09:23:21.576Z,13
2018-04-02T09:24:21.850Z,13.31
2018-04-02T09:25:21.923Z,13.67
2018-04-02T09:26:22.773Z,13.85
2018-04-02T09:27:21.915Z,14.15
2018-04-02T09:28:21.939Z,14.48
2018-04-02T09:29:21.960Z,14.53
2018-04-02T09:30:21.985Z,14.54
2018-04-02T09:31:21.750Z,14.86
2018-04-02T09:32:22.278Z,14.94
2018-04-02T09:33:22.059Z,15.21
2018-04-02T09:34:22.349Z,15.03
2018-04-02T09:35:22.108Z,15.25
2018-04-02T09:36:22.393Z,15.36
2018-04-02T09:37:22.407Z,15.44
2018-04-02T09:38:22.424Z,15.52
2018-04-02T09:39:22.196Z,15.64
2018-04-02T09:40:22.522Z,15.8
2018-04-02T09:41:21.987Z,16.12
2018-04-02T09:42:22.013Z,16.31
2018-04-02T09:43:22.299Z,16.49
2018-04-02T09:44:22.588Z,16.71
2018-04-02T09:45:22.608Z,16.99
2018-04-02T09:46:22.376Z,17.02
2018-04-02T09:47:22.645Z,17.26
2018-04-02T09:48:22.427Z,17.19
2018-04-02T09:49:22.698Z,17.14
2018-04-02T09:50:22.722Z,17.05
2018-04-02T09:51:22.498Z,17.22
2018-04-02T09:52:22.269Z,17.49
2018-04-02T09:53:22.550Z,17.67
2018-04-02T09:54:22.944Z,17.86
2018-04-02T09:55:22.654Z,18.13
2018-04-02T09:56:22.372Z,18.38
2018-04-02T09:57:22.662Z,18.66
2018-04-02T09:58:22.932Z,18.74
2018-04-02T09:59:23.189Z,19.02
2018-04-02T10:00:22.487Z,19.04
2018-04-02T10:01:23.018Z,19.16
2018-04-02T10:02:23.039Z,19.29
2018-04-02T10:03:22.821Z,19.47
2018-04-02T10:04:23.095Z,19.69
2018-04-02T10:05:23.147Z,19.89
2018-04-02T10:06:22.900Z,19.37
2018-04-02T10:07:22.925Z,19.31
2018-04-02T10:08:22.953Z,19.4
2018-04-02T10:09:22.985Z,19.59
2018-04-02T10:10:23.233Z,19.55
2018-04-02T10:11:23.033Z,19.66
2018-04-02T10:12:23.070Z,19.7
2018-04-02T10:13:22.837Z,19.77
2018-04-02T10:14:23.379Z,20.03
2018-04-02T10:15:23.209Z,20.4
2018-04-02T10:16:23.177Z,20.59
2018-04-02T10:17:23.207Z,20.65
2018-04-02T10:18:23.234Z,20.65
2018-04-02T10:19:23.259Z,20.74
2018-04-02T10:20:23.548Z,20.87
2018-04-02T10:21:23.068Z,21.02
2018-04-02T10:22:23.663Z,21.22
2018-04-02T10:23:23.380Z,21.48
2018-04-02T10:24:23.689Z,21.54
2018-04-02T10:25:23.742Z,21.64
2018-04-02T10:26:23.794Z,21.5
2018-04-02T10:27:23.748Z,21.69
2018-04-02T10:28:23.520Z,21.75
2018-04-02T10:29:23.587Z,21.77
2018-04-02T10:30:23.842Z,22.26
2018-04-02T10:31:23.609Z,22.5
2018-04-02T10:32:23.900Z,22.72
2018-04-02T10:33:23.922Z,22.84
2018-04-02T10:34:23.450Z,22.44
2018-04-02T10:35:23.727Z,22.2
2018-04-02T10:36:24.012Z,22.17
2018-04-02T10:37:24.138Z,22.14
2018-04-02T10:38:24.095Z,22.15
2018-04-02T10:39:23.858Z,22.26
2018-04-02T10:40:23.926Z,22.8
2018-04-02T10:41:23.906Z,22.94
2018-04-02T10:42:24.272Z,23.23
2018-04-02T10:43:24.309Z,23.51
2018-04-02T10:44:24.249Z,23.84
2018-04-02T10:45:24.094Z,23.93
2018-04-02T10:46:24.053Z,23.98
2018-04-02T10:47:24.090Z,23.77
2018-04-02T10:48:24.123Z,23.95
2018-04-02T10:49:24.154Z,24.05
2018-04-02T10:50:24.189Z,24.24
2018-04-02T10:51:24.469Z,24.57
2018-04-02T10:52:24.248Z,24.89
2018-04-02T10:53:24.026Z,25.08
2018-04-02T10:54:24.560Z,25.28
2018-04-02T10:55:24.338Z,25.23
2018-04-02T10:56:24.371Z,25.23
2018-04-02T10:57:24.651Z,25.51
2018-04-02T10:58:24.687Z,25.69
2018-04-02T10:59:24.717Z,25.91
2018-04-02T11:00:24.808Z,25.73
2018-04-02T11:01:24.781Z,25.88
2018-04-02T11:02:24.562Z,25.98
2018-04-02T11:03:24.337Z,26.07
2018-04-02T11:04:24.947Z,26.29
2018-04-02T11:05:24.935Z,26.51
2018-04-02T11:06:24.948Z,26.65
2018-04-02T11:07:24.718Z,26.56
2018-04-02T11:08:24.778Z,25.93
2018-04-02T11:09:25.038Z,25.91
2018-04-02T11:10:25.170Z,25.88
2018-04-02T11:11:25.123Z,25.96
2018-04-02T11:12:24.627Z,25.73
2018-04-02T11:13:24.912Z,25.62
2018-04-02T11:14:25.210Z,25.7
2018-04-02T11:15:25.287Z,25.96
2018-04-02T11:16:24.750Z,26.33
2018-04-02T11:17:25.040Z,26.26
2018-04-02T11:18:25.073Z,25.99
2018-04-02T11:19:25.357Z,25.53
2018-04-02T11:20:25.395Z,25.68
2018-04-02T11:21:25.424Z,25.54
2018-04-02T11:22:25.206Z,25.81
2018-04-02T11:23:25.487Z,26.06
2018-04-02T11:24:25.264Z,26.36
2018-04-02T11:25:25.537Z,26.26
2018-04-02T11:26:25.328Z,26.59
2018-04-02T11:27:25.618Z,27.05
2018-04-02T11:28:25.390Z,27.44
2018-04-02T11:29:25.165Z,27.47
2018-04-02T11:30:25.501Z,27.33
2018-04-02T11:31:25.486Z,27.47
2018-04-02T11:32:25.523Z,27.73
2018-04-02T11:33:25.579Z,28.14
2018-04-02T11:34:25.837Z,28.54
2018-04-02T11:35:25.412Z,29.12
2018-04-02T11:36:25.648Z,29.14
2018-04-02T11:37:25.692Z,29.31
2018-04-02T11:38:25.982Z,29.26
2018-04-02T11:39:26.013Z,29.38
2018-04-02T11:40:26.045Z,29.69
2018-04-02T11:41:25.829Z,29.26
2018-04-02T11:42:25.872Z,28.69
2018-04-02T11:43:25.892Z,28.25
2018-04-02T11:44:26.184Z,27.58
2018-04-02T11:45:25.708Z,27.82
2018-04-02T11:46:25.996Z,27.55
2018-04-02T11:47:26.023Z,27.74
2018-04-02T11:48:26.323Z,27.52
2018-04-02T11:49:26.348Z,27.95
2018-04-02T11:50:26.179Z,27.82
2018-04-02T11:51:26.421Z,27.58
2018-04-02T11:52:26.442Z,27.98
2018-04-02T11:53:25.956Z,28.52
2018-04-02T11:54:26.500Z,28.85
2018-04-02T11:55:26.633Z,29.31
2018-04-02T11:56:26.309Z,29.6
2018-04-02T11:57:26.357Z,29.36
2018-04-02T11:58:26.381Z,29.68
2018-04-02T11:59:26.433Z,29.76
2018-04-02T12:00:26.446Z,30
2018-04-02T12:01:26.480Z,30.5
2018-04-02T12:02:26.778Z,30.81
2018-04-02T12:03:26.551Z,31.05
2018-04-02T12:04:26.585Z,31.39
2018-04-02T12:05:26.413Z,31.64
2018-04-02T12:06:26.408Z,31.74
2018-04-02T12:07:26.700Z,31.94
2018-04-02T12:08:26.987Z,31.85
2018-04-02T12:09:26.807Z,31.58
2018-04-02T12:10:27.066Z,31.4
2018-04-02T12:11:26.846Z,31.29
2018-04-02T12:12:27.134Z,31.21
2018-04-02T12:13:26.903Z,30.85
2018-04-02T12:14:26.935Z,30.44
2018-04-02T12:15:27.018Z,30.96
2018-04-02T12:16:27.260Z,31.2
2018-04-02T12:17:26.785Z,31.55
2018-04-02T12:18:27.077Z,31.03
2018-04-02T12:19:27.112Z,31.58
2018-04-02T12:20:27.234Z,31.8
2018-04-02T12:21:27.440Z,32.04
2018-04-02T12:22:27.479Z,32.4
2018-04-02T12:23:27.504Z,32.03
2018-04-02T12:24:27.024Z,30.97
2018-04-02T12:25:27.312Z,30.91
2018-04-02T12:26:27.803Z,31.36
2018-04-02T12:27:27.831Z,31.65
2018-04-02T12:28:27.679Z,32.26
2018-04-02T12:29:27.727Z,32.29
2018-04-02T12:30:27.490Z,32.07
2018-04-02T12:31:27.779Z,31.85
2018-04-02T12:32:27.564Z,31.9
2018-04-02T12:33:27.627Z,32.15
2018-04-02T12:34:27.919Z,32.68
2018-04-02T12:35:27.970Z,32.92
2018-04-02T12:36:27.447Z,33.46
2018-04-02T12:37:27.479Z,33.5
2018-04-02T12:38:27.766Z,33.52
2018-04-02T12:39:27.547Z,33.32
2018-04-02T12:40:27.582Z,33.31
2018-04-02T12:41:27.621Z,33.79
2018-04-02T12:42:27.906Z,34.18
2018-04-02T12:43:28.548Z,34.42
2018-04-02T12:44:28.325Z,34.9
2018-04-02T12:45:28.673Z,35.23
2018-04-02T12:46:28.065Z,35.34
2018-04-02T12:47:28.127Z,35.45
2018-04-02T12:48:28.206Z,35.46
2018-04-02T12:49:28.414Z,35.19
2018-04-02T12:50:28.490Z,34.83
2018-04-02T12:51:27.966Z,34.64
2018-04-02T12:52:28.512Z,34.27
2018-04-02T12:53:28.542Z,34.05
2018-04-02T12:54:28.328Z,33.59
2018-04-02T12:55:28.619Z,33.17
2018-04-02T12:56:28.676Z,33.24
2018-04-02T12:57:28.439Z,33.12
2018-04-02T12:58:28.221Z,33.9
2018-04-02T12:59:28.564Z,34.25
2018-04-02T13:00:28.294Z,34.35
2018-04-02T13:01:28.835Z,34.95
2018-04-02T13:02:28.876Z,35.56
2018-04-02T13:03:28.660Z,35.85
2018-04-02T13:04:28.720Z,36
2018-04-02T13:05:28.780Z,36.37
2018-04-02T13:06:28.765Z,36.51
2018-04-02T13:07:29.057Z,36.84
2018-04-02T13:08:28.838Z,37.23
2018-04-02T13:09:28.891Z,37.48
2018-04-02T13:10:28.912Z,37.68